Terminal Aerodrome Forecast
Issued by NWS Louisville, KY

Home | Current Version | Previous Version | Text Only | Print | Product List | Glossary On
Versions: 1 2 3 4 5 6 7 8 9 10 11 12
626
FTUS43 KLMK 050528
TAFSDF
TAF
KSDF 050528Z 0506/0612 VRB03KT P6SM SKC
     FM051500 21006KT P6SM SCT250
     FM061000 19003KT P6SM SCT120=

USA.gov is the U.S. government's official web portal to all federal, state and local government web resources and services.